Time;durP1;ratioP1;P1;durP2;ratioP2;P2;SDS_P1;SDS_P2;PMS_P1;PMS_P2;Temp;Humidity;BMP_temperature;BMP_pressure;BME280_temperature;BME280_humidity;BME280_pressure;Samples;Min_cycle;Max_cycle;Signal;HPM_P1;HPM_P2
2022/08/24 00:00:52;;;;;;;9.82;8.15;;;;;;;21.38;100.00;97857.03;5072517;28;20215;-58
2022/08/24 00:03:18;;;;;;;12.50;8.73;;;;;;;21.59;100.00;97871.03;5072162;28;20164;-58
2022/08/24 00:05:44;;;;;;;9.20;8.30;;;;;;;21.51;100.00;97863.22;5072168;28;20176;-58
2022/08/24 00:08:09;;;;;;;10.68;8.90;;;;;;;21.47;100.00;97855.91;5072445;28;20176;-58
2022/08/24 00:10:35;;;;;;;13.10;9.13;;;;;;;21.27;100.00;97852.25;5071829;28;20180;-58
2022/08/24 00:13:00;;;;;;;11.57;8.70;;;;;;;21.19;100.00;97853.16;5071842;28;20176;-58
2022/08/24 00:15:25;;;;;;;10.57;8.95;;;;;;;21.07;100.00;97846.75;5071916;28;20346;-58
2022/08/24 00:17:51;;;;;;;9.88;8.88;;;;;;;21.07;100.00;97838.00;5072339;28;20172;-58
2022/08/24 00:20:17;;;;;;;9.55;8.55;;;;;;;21.25;100.00;97851.59;5071788;28;20543;-58
2022/08/24 00:22:42;;;;;;;10.07;9.00;;;;;;;21.12;100.00;97843.53;5071759;28;20180;-58
2022/08/24 00:25:11;;;;;;;9.23;7.97;;;;;;;21.36;100.00;97859.00;5071982;28;20203;-58
2022/08/24 00:27:37;;;;;;;11.30;8.25;;;;;;;21.52;100.00;97848.25;5071593;28;20673;-58
2022/08/24 00:30:09;;;;;;;10.20;8.52;;;;;;;21.54;100.00;97844.44;5075123;28;20184;-57
2022/08/24 00:32:36;;;;;;;9.80;8.68;;;;;;;21.38;100.00;97859.66;5075628;28;20237;-58
2022/08/24 00:35:04;;;;;;;9.57;8.57;;;;;;;21.39;100.00;97848.91;5075486;28;20215;-58
2022/08/24 00:37:29;;;;;;;8.85;8.00;;;;;;;21.49;100.00;97844.19;5075823;28;20180;-58
2022/08/24 00:39:56;;;;;;;12.10;8.30;;;;;;;21.66;100.00;97852.63;5075728;28;20172;-58
2022/08/24 00:42:22;;;;;;;8.93;8.13;;;;;;;21.85;100.00;97868.66;5075454;28;20727;-58
2022/08/24 00:44:47;;;;;;;9.55;7.88;;;;;;;21.98;100.00;97873.25;5075690;28;20169;-58
2022/08/24 00:47:21;;;;;;;9.52;7.93;;;;;;;21.90;100.00;97881.25;5075635;28;20178;-58
2022/08/24 00:49:58;;;;;;;9.20;8.18;;;;;;;21.98;100.00;97891.69;5075914;28;20218;-58
2022/08/24 00:52:24;;;;;;;12.75;8.48;;;;;;;22.05;100.00;97879.41;5075239;28;20306;-58
2022/08/24 00:54:59;;;;;;;11.32;9.23;;;;;;;22.04;100.00;97873.28;5075396;28;20209;-58
2022/08/24 00:57:30;;;;;;;11.52;9.55;;;;;;;22.09;100.00;97867.47;5075214;28;20217;-58
2022/08/24 01:00:04;;;;;;;14.45;9.93;;;;;;;22.17;100.00;97880.50;5075162;28;20169;-58
2022/08/24 01:02:34;;;;;;;12.82;9.95;;;;;;;22.02;100.00;97892.97;5075432;28;20169;-58
2022/08/24 01:05:03;;;;;;;18.45;9.90;;;;;;;22.02;100.00;97903.50;5075048;28;20702;-57
2022/08/24 01:07:31;;;;;;;16.25;9.55;;;;;;;21.82;100.00;97897.22;5074918;28;20203;-58
2022/08/24 01:10:02;;;;;;;13.23;9.35;;;;;;;21.15;100.00;97890.56;5074980;28;20676;-58
2022/08/24 01:12:30;;;;;;;10.80;8.95;;;;;;;21.17;100.00;97893.81;5074935;28;20160;-58
2022/08/24 01:14:57;;;;;;;9.82;8.80;;;;;;;21.34;100.00;97890.78;5074772;28;20565;-58
2022/08/24 01:20:09;;;;;;;17.50;9.50;;;;;;;20.95;100.00;97881.56;5075659;28;20203;-58
2022/08/24 01:22:53;;;;;;;12.00;9.40;;;;;;;20.65;100.00;97895.69;5074746;28;20234;-58
2022/08/24 01:25:20;;;;;;;10.48;9.18;;;;;;;20.40;100.00;97865.41;5074623;28;20697;-58
2022/08/24 01:27:47;;;;;;;13.15;9.38;;;;;;;20.28;100.00;97888.66;5074539;28;20176;-58
2022/08/24 01:30:16;;;;;;;11.73;10.25;;;;;;;20.23;100.00;97891.00;5074581;28;20249;-58
2022/08/24 01:32:50;;;;;;;11.45;10.25;;;;;;;20.48;100.00;97888.97;5074558;28;20204;-59
2022/08/24 01:35:16;;;;;;;18.55;10.45;;;;;;;20.07;100.00;97885.91;5074474;28;20199;-59
2022/08/24 01:37:42;;;;;;;13.52;10.35;;;;;;;20.22;100.00;97893.81;5074479;28;20176;-58
2022/08/24 01:40:07;;;;;;;18.95;11.05;;;;;;;20.04;100.00;97890.66;5073843;28;20173;-58
2022/08/24 01:42:33;;;;;;;14.63;11.07;;;;;;;19.96;100.00;97893.31;5074939;28;20188;-58
2022/08/24 01:44:59;;;;;;;15.27;10.48;;;;;;;20.19;100.00;97896.78;5074584;28;20733;-58
2022/08/24 01:47:25;;;;;;;14.43;10.10;;;;;;;20.08;100.00;97902.44;5074281;28;20670;-58
2022/08/24 01:49:51;;;;;;;16.27;11.18;;;;;;;19.96;100.00;97903.84;5074253;28;20179;-59
2022/08/24 01:52:19;;;;;;;14.48;11.52;;;;;;;20.11;100.00;97908.16;5073957;28;20212;-59
2022/08/24 01:54:45;;;;;;;19.05;11.55;;;;;;;20.11;100.00;97910.00;5074369;28;20196;-59
2022/08/24 01:57:11;;;;;;;15.68;11.07;;;;;;;20.05;100.00;97900.97;5074354;28;20183;-58
2022/08/24 01:59:37;;;;;;;13.85;10.73;;;;;;;20.23;100.00;97909.38;5074083;28;20211;-58
2022/08/24 02:02:15;;;;;;;17.10;11.20;;;;;;;20.28;100.00;97914.13;5074049;28;20211;-59
2022/08/24 02:04:40;;;;;;;13.60;10.70;;;;;;;20.30;100.00;97917.38;5074280;28;20165;-58
2022/08/24 02:07:08;;;;;;;13.10;10.93;;;;;;;20.21;100.00;97918.44;5074187;28;20176;-59
2022/08/24 02:09:34;;;;;;;14.02;10.98;;;;;;;20.23;100.00;97917.25;5073826;28;20723;-58
2022/08/24 02:11:59;;;;;;;12.85;10.82;;;;;;;20.43;100.00;97922.84;5074086;28;20180;-59
2022/08/24 02:14:25;;;;;;;14.98;9.85;;;;;;;20.66;100.00;97927.06;5073659;28;20211;-58
2022/08/24 02:16:50;;;;;;;11.68;9.60;;;;;;;20.61;100.00;97920.69;5074040;28;20218;-58
2022/08/24 02:19:15;;;;;;;13.15;10.75;;;;;;;20.69;100.00;97928.53;5073663;28;20637;-58
2022/08/24 02:21:41;;;;;;;14.82;10.48;;;;;;;20.43;100.00;97928.09;5073604;28;20563;-59
2022/08/24 02:24:07;;;;;;;16.50;11.13;;;;;;;20.19;100.00;97921.25;5073607;28;20176;-59
2022/08/24 02:26:32;;;;;;;18.45;10.73;;;;;;;20.07;100.00;97927.09;5074002;28;20181;-59
2022/08/24 02:28:58;;;;;;;13.38;10.73;;;;;;;20.21;100.00;97923.69;5073496;28;20184;-59
2022/08/24 02:31:23;;;;;;;14.60;10.98;;;;;;;20.30;100.00;97923.47;5073421;28;20187;-58
2022/08/24 02:33:49;;;;;;;18.02;10.50;;;;;;;20.21;100.00;97918.44;5073907;28;20180;-58
2022/08/24 02:36:14;;;;;;;14.02;11.07;;;;;;;20.14;100.00;97913.09;5073260;28;20229;-58
2022/08/24 02:38:40;;;;;;;14.35;11.00;;;;;;;19.96;100.00;97916.97;5073262;28;20259;-58
2022/08/24 02:41:05;;;;;;;12.75;10.68;;;;;;;19.95;100.00;97917.97;5073484;28;20176;-58
2022/08/24 02:43:32;;;;;;;12.45;11.15;;;;;;;19.91;100.00;97914.88;5073452;28;20638;-58
2022/08/24 02:45:58;;;;;;;15.98;10.32;;;;;;;19.96;100.00;97906.47;5073070;28;20665;-58
2022/08/24 02:48:24;;;;;;;13.10;11.75;;;;;;;20.06;100.00;97899.16;5073328;28;20219;-59
2022/08/24 02:50:50;;;;;;;17.27;12.23;;;;;;;20.15;100.00;97906.84;5072362;28;20658;-59
2022/08/24 02:53:18;;;;;;;15.27;11.98;;;;;;;19.96;100.00;97898.56;5073191;28;20258;-58
2022/08/24 02:55:43;;;;;;;13.98;12.30;;;;;;;19.94;100.00;97926.84;5073136;28;20208;-58
2022/08/24 02:58:10;;;;;;;17.02;12.57;;;;;;;20.03;100.00;97936.28;5072934;28;20203;-58
2022/08/24 03:00:38;;;;;;;15.95;11.95;;;;;;;19.91;100.00;97932.41;5072842;28;20695;-59
2022/08/24 03:03:05;;;;;;;16.80;11.90;;;;;;;19.89;100.00;97918.66;5072789;28;20198;-59
2022/08/24 03:05:31;;;;;;;15.43;12.50;;;;;;;19.86;100.00;97921.63;5072723;28;20176;-58
2022/08/24 03:07:56;;;;;;;13.82;11.88;;;;;;;20.01;100.00;97940.91;5072736;28;20256;-58
2022/08/24 03:10:22;;;;;;;19.27;13.02;;;;;;;19.96;100.00;97951.94;5072659;28;20249;-58
2022/08/24 03:12:49;;;;;;;17.15;12.57;;;;;;;19.94;100.00;97946.03;5072633;28;20180;-58
2022/08/24 03:15:15;;;;;;;18.50;12.80;;;;;;;19.99;100.00;97945.53;5073011;28;20688;-58
2022/08/24 03:17:40;;;;;;;17.92;12.73;;;;;;;19.97;100.00;97948.31;5072513;28;20607;-58
2022/08/24 03:20:10;;;;;;;23.92;13.00;;;;;;;19.89;100.00;97940.50;5072750;28;20255;-59
2022/08/24 03:22:36;;;;;;;16.13;12.10;;;;;;;20.06;100.00;97955.16;5072385;28;20242;-58
2022/08/24 03:25:02;;;;;;;15.40;11.40;;;;;;;20.24;100.00;97957.50;5072438;28;20215;-59
2022/08/24 03:27:28;;;;;;;15.13;11.45;;;;;;;20.08;100.00;97955.00;5072617;28;20183;-58
2022/08/24 03:29:53;;;;;;;12.85;11.55;;;;;;;20.16;100.00;97949.69;5072333;28;20177;-58
2022/08/24 03:32:19;;;;;;;15.23;12.38;;;;;;;20.38;100.00;97947.03;5072550;28;20218;-59
2022/08/24 03:34:45;;;;;;;13.30;11.63;;;;;;;20.27;100.00;97952.72;5072173;28;20196;-59
2022/08/24 03:37:11;;;;;;;19.33;11.93;;;;;;;20.04;100.00;97937.94;5072503;28;20563;-58
2022/08/24 03:39:37;;;;;;;18.25;12.02;;;;;;;19.92;100.00;97929.63;5072113;28;20179;-58
2022/08/24 03:42:03;;;;;;;15.30;11.40;;;;;;;19.93;100.00;97922.56;5072189;28;20176;-59
2022/08/24 03:44:28;;;;;;;14.10;9.98;;;;;;;20.01;100.00;97935.63;5072125;28;20172;-59
2022/08/24 03:46:53;;;;;;;11.35;9.50;;;;;;;20.16;100.00;97939.19;5072650;28;20172;-59
2022/08/24 03:49:20;;;;;;;14.57;9.55;;;;;;;20.41;100.00;97945.88;5072348;28;20181;-59
2022/08/24 03:51:45;;;;;;;11.00;9.90;;;;;;;20.41;100.00;97940.63;5072449;28;20228;-58
2022/08/24 03:54:12;;;;;;;13.52;9.82;;;;;;;20.41;100.00;97946.66;5072578;28;20180;-58
2022/08/24 03:56:38;;;;;;;13.80;9.35;;;;;;;20.54;100.00;97943.44;5072016;28;20180;-58
2022/08/24 03:59:06;;;;;;;13.20;10.10;;;;;;;20.52;100.00;97945.44;5072248;28;20204;-57
2022/08/24 04:01:32;;;;;;;14.05;9.32;;;;;;;20.21;100.00;97944.69;5072217;28;20188;-57
2022/08/24 04:03:58;;;;;;;13.82;9.18;;;;;;;19.98;100.00;97922.84;5071684;28;20563;-58
2022/08/24 04:06:23;;;;;;;11.77;10.10;;;;;;;20.16;100.00;97953.13;5071858;28;20226;-58
2022/08/24 04:08:50;;;;;;;18.25;9.45;;;;;;;20.09;100.00;97946.94;5071826;28;20259;-58
2022/08/24 04:11:20;;;;;;;14.75;9.45;;;;;;;20.10;100.00;97953.81;5071892;28;20176;-58
2022/08/24 04:13:46;;;;;;;13.13;10.00;;;;;;;19.91;100.00;97954.25;5072090;28;20261;-58
2022/08/24 04:16:15;;;;;;;13.85;10.90;;;;;;;19.94;100.00;97948.63;5071713;28;20192;-58
2022/08/24 04:18:41;;;;;;;12.90;9.40;;;;;;;19.94;100.00;97932.09;5071798;28;20172;-58
2022/08/24 04:21:15;;;;;;;13.55;9.80;;;;;;;20.25;100.00;97959.13;5071781;28;20263;-58
2022/08/24 04:23:41;;;;;;;17.83;10.95;;;;;;;20.11;100.00;97954.66;5072102;28;20156;-58
2022/08/24 04:26:07;;;;;;;13.15;10.65;;;;;;;20.11;100.00;97949.41;5071997;28;20179;-58
2022/08/24 04:28:32;;;;;;;14.27;11.30;;;;;;;20.16;100.00;97933.94;5071947;28;20172;-58
2022/08/24 04:30:59;;;;;;;16.23;10.77;;;;;;;20.26;100.00;97952.88;5071932;28;20626;-58
2022/08/24 04:33:25;;;;;;;21.00;10.93;;;;;;;20.24;100.00;97957.50;5071851;28;20172;-59
2022/08/24 04:35:50;;;;;;;14.93;10.32;;;;;;;20.38;100.00;97947.03;5072103;28;20188;-59
2022/08/24 04:38:17;;;;;;;13.57;10.55;;;;;;;20.43;100.00;97954.38;5071603;28;20175;-59
2022/08/24 04:40:45;;;;;;;17.00;11.15;;;;;;;20.56;100.00;97957.22;5071531;28;20191;-59
2022/08/24 04:43:11;;;;;;;12.55;11.05;;;;;;;20.61;100.00;97962.75;5071837;28;20177;-59
2022/08/24 04:45:39;;;;;;;14.73;11.30;;;;;;;20.72;100.00;97963.16;5072111;28;20168;-58
2022/08/24 04:48:04;;;;;;;15.82;11.15;;;;;;;20.82;100.00;97966.34;5072051;28;20259;-59
2022/08/24 04:50:34;;;;;;;14.70;11.10;;;;;;;20.92;100.00;97966.91;5071783;28;20210;-57
2022/08/24 04:53:00;;;;;;;11.98;10.48;;;;;;;21.03;100.00;97965.69;5071388;28;20287;-58
2022/08/24 04:55:26;;;;;;;11.57;10.27;;;;;;;20.99;100.00;97967.81;5072111;28;20231;-59
2022/08/24 04:57:52;;;;;;;13.75;10.55;;;;;;;20.95;100.00;97963.94;5071699;28;20180;-59
2022/08/24 05:00:18;;;;;;;14.07;11.60;;;;;;;21.06;100.00;97966.13;5071385;28;20727;-58
2022/08/24 05:02:44;;;;;;;15.50;10.88;;;;;;;20.99;100.00;97962.56;5071877;28;20695;-57
2022/08/24 05:05:10;;;;;;;15.88;10.73;;;;;;;21.12;100.00;97978.56;5071342;28;20168;-57
2022/08/24 05:07:36;;;;;;;13.77;11.70;;;;;;;21.14;100.00;97971.28;5071589;28;20176;-57
2022/08/24 05:10:03;;;;;;;14.75;11.52;;;;;;;21.15;100.00;97982.66;5071360;28;20164;-57
2022/08/24 05:12:28;;;;;;;15.32;12.15;;;;;;;21.20;100.00;97986.34;5071526;28;20180;-57
2022/08/24 05:14:54;;;;;;;20.00;11.45;;;;;;;21.11;100.00;97976.94;5072310;28;20202;-59
2022/08/24 05:17:19;;;;;;;16.98;12.15;;;;;;;20.83;100.00;97967.16;5075094;28;20184;-58
2022/08/24 05:19:45;;;;;;;15.60;12.20;;;;;;;20.94;100.00;97977.28;5075096;28;20618;-57
2022/08/24 05:22:10;;;;;;;17.30;11.93;;;;;;;20.73;100.00;97950.81;5075793;28;20164;-57
2022/08/24 05:24:36;;;;;;;13.43;11.98;;;;;;;21.02;100.00;97966.66;5074951;28;20207;-57
2022/08/24 05:27:01;;;;;;;15.77;11.38;;;;;;;20.99;100.00;97967.03;5074627;28;20255;-59
2022/08/24 05:29:27;;;;;;;19.13;11.95;;;;;;;21.20;100.00;97982.91;5074933;28;20172;-59
2022/08/24 05:31:52;;;;;;;14.20;12.23;;;;;;;21.30;100.00;97989.53;5074521;28;20657;-57
2022/08/24 05:34:18;;;;;;;18.75;12.32;;;;;;;21.52;100.00;97982.53;5074746;28;20680;-58
2022/08/24 05:36:44;;;;;;;14.63;12.43;;;;;;;21.62;100.00;97978.59;5075066;28;20203;-58
2022/08/24 05:39:13;;;;;;;19.48;12.32;;;;;;;21.73;100.00;97986.06;5056524;28;20209;-59
2022/08/24 05:41:41;;;;;;;15.52;12.63;;;;;;;21.79;100.00;97987.16;5074422;28;20610;-58
2022/08/24 05:44:07;;;;;;;15.93;12.75;;;;;;;21.76;100.00;97985.69;5074357;28;20212;-58
2022/08/24 05:46:33;;;;;;;14.98;13.38;;;;;;;21.71;100.00;97987.25;5074618;28;20202;-57
2022/08/24 05:48:59;;;;;;;14.65;12.75;;;;;;;21.66;100.00;97987.78;5074244;28;20183;-58
2022/08/24 05:51:25;;;;;;;13.85;12.13;;;;;;;21.67;100.00;97980.69;5074040;28;20674;-58
2022/08/24 05:53:50;;;;;;;15.10;12.90;;;;;;;21.69;100.00;97979.53;5074087;28;20228;-62
2022/08/24 05:56:18;;;;;;;13.73;11.48;;;;;;;21.69;100.00;97986.63;5074064;28;20196;-59
2022/08/24 05:58:45;;;;;;;16.08;13.00;;;;;;;21.72;100.00;97971.25;5074634;28;20168;-59
2022/08/24 06:01:13;;;;;;;16.40;13.40;;;;;;;21.82;100.00;97971.78;5074603;28;20200;-59
2022/08/24 06:03:39;;;;;;;15.10;13.00;;;;;;;21.89;100.00;97969.22;5073981;28;20203;-58
2022/08/24 06:06:07;;;;;;;14.93;13.13;;;;;;;21.99;100.00;97977.63;5074210;28;20633;-59
2022/08/24 06:08:37;;;;;;;14.32;12.77;;;;;;;22.04;100.00;97970.00;5073876;28;20237;-57
2022/08/24 06:11:02;;;;;;;17.27;12.40;;;;;;;21.94;100.00;97938.69;5073877;28;20164;-57
2022/08/24 06:13:29;;;;;;;13.13;11.82;;;;;;;22.19;100.00;97974.19;5074058;28;20664;-57
2022/08/24 06:16:10;;;;;;;14.05;12.63;;;;;;;22.25;100.00;97972.66;5073793;28;20211;-57
2022/08/24 06:18:37;;;;;;;18.92;12.77;;;;;;;22.25;100.00;97977.91;5074258;28;20175;-58
2022/08/24 06:21:08;;;;;;;13.95;12.50;;;;;;;22.32;100.00;97979.59;5073934;28;20199;-57
2022/08/24 06:23:34;;;;;;;14.75;12.05;;;;;;;22.43;100.00;97986.19;5073866;28;20172;-57
2022/08/24 06:28:44;;;;;;;18.88;12.90;;;;;;;22.61;100.00;97983.94;5073782;28;20167;-59
2022/08/24 06:31:09;;;;;;;17.10;11.73;;;;;;;22.61;100.00;97978.69;5073402;28;20172;-57
2022/08/24 06:33:35;;;;;;;13.30;11.93;;;;;;;22.58;100.00;97973.75;5073372;28;20210;-57
2022/08/24 06:36:00;;;;;;;18.55;12.93;;;;;;;22.59;100.00;97976.22;5073246;28;20193;-57
2022/08/24 06:38:26;;;;;;;13.90;11.65;;;;;;;22.68;100.00;97984.81;5073844;28;20241;-57
2022/08/24 06:40:51;;;;;;;15.07;12.27;;;;;;;22.77;100.00;97979.19;5073272;28;20179;-57
2022/08/24 06:43:17;;;;;;;20.10;12.75;;;;;;;22.89;100.00;97987.41;5073207;28;20187;-57
2022/08/24 06:45:43;;;;;;;15.48;11.75;;;;;;;22.75;100.00;97954.00;5073462;28;20169;-57
2022/08/24 06:48:08;;;;;;;14.93;11.55;;;;;;;23.01;100.00;97986.69;5073057;28;20256;-57
2022/08/24 06:50:34;;;;;;;14.68;12.35;;;;;;;23.14;100.00;97994.69;5072985;28;20168;-57
2022/08/24 06:53:00;;;;;;;16.17;12.20;;;;;;;23.19;100.00;97988.88;5072773;28;20208;-57
2022/08/24 06:55:27;;;;;;;12.52;11.02;;;;;;;23.27;100.00;97980.78;5073902;28;20254;-57
2022/08/24 06:57:53;;;;;;;17.10;11.88;;;;;;;23.36;100.00;97982.25;5072875;28;20200;-57
2022/08/24 07:00:20;;;;;;;18.58;11.38;;;;;;;23.48;100.00;97993.91;5072884;28;20165;-57
2022/08/24 07:02:45;;;;;;;14.65;11.40;;;;;;;23.55;100.00;97989.47;5072817;28;20168;-57
2022/08/24 07:05:11;;;;;;;14.45;12.10;;;;;;;23.71;100.00;97995.22;5072739;28;20171;-57
2022/08/24 07:07:37;;;;;;;16.38;11.05;;;;;;;23.91;100.00;97992.69;5072714;28;20229;-57
2022/08/24 07:10:04;;;;;;;11.75;10.27;;;;;;;24.04;100.00;97985.59;5072965;28;20180;-57
2022/08/24 07:12:29;;;;;;;13.48;9.32;;;;;;;24.15;100.00;97988.47;5072578;28;20632;-57
2022/08/24 07:14:54;;;;;;;10.15;9.05;;;;;;;24.23;100.00;97990.94;5072757;28;20279;-57
2022/08/24 07:17:20;;;;;;;11.13;9.45;;;;;;;24.32;100.00;97987.06;5072568;28;20225;-57
2022/08/24 07:19:45;;;;;;;10.60;9.27;;;;;;;24.38;100.00;97982.81;5072503;28;20168;-57
2022/08/24 07:22:12;;;;;;;14.27;8.98;;;;;;;24.48;100.00;97994.63;5073532;28;20253;-57
2022/08/24 07:24:38;;;;;;;11.25;9.05;;;;;;;24.51;100.00;97994.25;5072308;28;20615;-58
2022/08/24 07:27:05;;;;;;;13.38;10.07;;;;;;;24.58;100.00;97988.16;5072339;28;20172;-58
2022/08/24 07:29:31;;;;;;;12.27;10.15;;;;;;;24.68;100.00;97995.47;5072378;28;20172;-57
2022/08/24 07:31:56;;;;;;;15.70;10.55;;;;;;;24.76;100.00;97986.53;5072579;28;20583;-57
2022/08/24 07:34:21;;;;;;;14.57;10.63;;;;;;;24.81;100.00;97984.91;5072456;28;20168;-57
2022/08/24 07:36:49;;;;;;;12.77;10.23;;;;;;;24.88;100.00;97991.00;5072387;28;20263;-57
2022/08/24 07:39:15;;;;;;;18.38;10.52;;;;;;;24.94;100.00;97999.94;5072119;28;20263;-56
2022/08/24 07:41:42;;;;;;;18.63;10.65;;;;;;;24.97;100.00;98000.34;5072186;28;20207;-57
2022/08/24 07:44:09;;;;;;;15.85;10.50;;;;;;;25.00;100.00;98009.72;5072458;28;20199;-58
2022/08/24 07:46:35;;;;;;;19.55;11.48;;;;;;;24.95;100.00;98012.19;5072131;28;20187;-57
2022/08/24 07:49:01;;;;;;;19.83;10.45;;;;;;;24.95;100.00;98012.19;5072047;28;20657;-57
2022/08/24 07:51:27;;;;;;;16.55;10.40;;;;;;;24.93;100.00;98014.22;5072071;28;20584;-57
2022/08/24 07:53:53;;;;;;;17.52;11.13;;;;;;;24.91;100.00;98017.06;5071962;28;20723;-58
2022/08/24 07:56:18;;;;;;;14.60;9.82;;;;;;;24.89;100.00;98011.16;5071902;28;20712;-57
2022/08/24 07:58:44;;;;;;;21.80;11.20;;;;;;;24.82;100.00;98005.06;5072004;28;20173;-57
2022/08/24 08:01:09;;;;;;;19.98;11.20;;;;;;;24.83;100.00;98014.63;5071896;28;20668;-58
2022/08/24 08:03:35;;;;;;;20.00;10.18;;;;;;;24.85;100.00;98007.28;5072086;28;20176;-57
2022/08/24 08:06:04;;;;;;;15.07;9.73;;;;;;;24.85;100.00;98014.44;5072425;28;20207;-58
2022/08/24 08:08:31;;;;;;;11.95;9.02;;;;;;;24.78;100.00;98017.06;5072094;28;20180;-57
2022/08/24 08:10:57;;;;;;;10.27;9.02;;;;;;;24.80;100.00;98020.34;5072096;28;20173;-58
2022/08/24 08:13:23;;;;;;;10.63;9.55;;;;;;;24.78;100.00;98017.06;5071664;28;20574;-57
2022/08/24 08:15:49;;;;;;;12.55;9.70;;;;;;;24.53;100.00;98009.88;5071692;28;20297;-58
2022/08/24 08:18:15;;;;;;;15.07;10.23;;;;;;;24.31;100.00;98011.09;5072047;28;20169;-58
2022/08/24 08:20:41;;;;;;;14.13;9.70;;;;;;;24.19;100.00;98026.72;5071773;28;20274;-58
2022/08/24 08:25:56;;;;;;;13.60;9.88;;;;;;;24.15;100.00;98022.84;5072019;28;20183;-57
2022/08/24 08:28:22;;;;;;;10.70;8.68;;;;;;;24.20;100.00;98023.06;5071931;28;20640;-58
2022/08/24 08:30:48;;;;;;;14.60;9.40;;;;;;;24.13;100.00;98014.31;5071712;28;20652;-58
2022/08/24 08:33:14;;;;;;;13.20;9.18;;;;;;;24.32;100.00;98018.81;5071597;28;20185;-57
2022/08/24 08:35:41;;;;;;;12.82;9.10;;;;;;;24.51;100.00;98014.56;5071528;28;20200;-58
2022/08/24 08:38:07;;;;;;;14.82;9.23;;;;;;;24.66;100.00;98015.25;5071871;28;20614;-58
2022/08/24 08:40:54;;;;;;;12.93;9.40;;;;;;;24.93;100.00;98012.38;5071824;28;20581;-58
2022/08/24 08:44:00;;;;;;;12.00;8.82;;;;;;;25.15;100.00;98016.44;5071797;28;20183;-58
2022/08/24 08:46:42;;;;;;;10.65;8.55;;;;;;;25.16;100.00;98009.28;5071800;28;20247;-58
2022/08/24 08:49:29;;;;;;;14.13;8.65;;;;;;;25.23;100.00;98010.91;5071834;28;20523;-58
2022/08/24 08:51:57;;;;;;;15.05;9.48;;;;;;;25.41;100.00;98008.47;5075117;28;20271;-57
2022/08/24 08:54:32;;;;;;;11.35;10.13;;;;;;;25.40;100.00;98011.31;5075480;28;20657;-57
2022/08/24 08:57:23;;;;;;;11.20;8.60;;;;;;;25.58;100.00;98009.63;5075486;28;20644;-57
2022/08/24 08:59:55;;;;;;;14.70;8.90;;;;;;;25.81;100.00;98017.91;5039062;28;20195;-57
2022/08/24 09:02:23;;;;;;;12.95;9.13;;;;;;;25.83;100.00;98007.91;5075406;28;20533;-58
2022/08/24 09:05:08;;;;;;;10.55;8.00;;;;;;;25.95;100.00;98005.44;5075081;28;20179;-58
2022/08/24 09:07:46;;;;;;;8.90;8.07;;;;;;;26.17;100.00;98007.56;5075375;28;20161;-58
2022/08/24 09:10:27;;;;;;;10.13;7.00;;;;;;;26.35;100.00;98012.97;5075319;28;20167;-58
2022/08/24 09:12:52;;;;;;;9.30;7.50;;;;;;;26.51;100.00;98012.47;5075280;28;20169;-58
2022/08/24 09:15:42;;;;;;;9.15;7.60;;;;;;;26.65;100.00;98007.91;5075072;28;20210;-58
2022/08/24 09:18:19;;;;;;;9.45;8.02;;;;;;;26.78;100.00;98013.94;5075994;28;20591;-58
2022/08/24 09:21:22;;;;;;;8.35;7.40;;;;;;;26.83;100.00;98010.63;5075062;28;20560;-58
2022/08/24 09:23:59;;;;;;;8.30;7.03;;;;;;;26.95;100.00;98009.66;5075314;28;20180;-58
2022/08/24 09:26:35;;;;;;;8.68;6.97;;;;;;;27.07;100.00;98012.44;5074704;28;20622;-57
2022/08/24 09:29:04;;;;;;;15.05;7.05;;;;;;;27.12;100.00;98008.09;5074680;28;20203;-58
2022/08/24 09:31:48;;;;;;;10.68;7.25;;;;;;;27.23;100.00;98003.94;5074880;28;20194;-58
2022/08/24 09:34:25;;;;;;;8.00;6.63;;;;;;;27.33;100.00;97986.44;5074806;28;20184;-58
2022/08/24 09:36:58;;;;;;;9.43;6.53;;;;;;;27.32;100.00;97987.50;5075090;28;20171;-58
2022/08/24 09:39:30;;;;;;;9.95;6.32;;;;;;;27.38;94.37;97983.94;5074773;28;20165;-57
2022/08/24 09:42:08;;;;;;;7.32;5.75;;;;;;;27.41;95.02;97982.69;5074458;28;20168;-58
2022/08/24 09:45:04;;;;;;;7.65;6.05;;;;;;;27.49;96.50;97983.22;5074637;28;20184;-58
2022/08/24 09:47:30;;;;;;;8.13;5.30;;;;;;;27.57;88.76;97980.25;5074653;28;20164;-58
2022/08/24 09:50:14;;;;;;;5.82;4.78;;;;;;;27.64;85.66;97980.97;5074309;28;20230;-58
2022/08/24 09:53:14;;;;;;;5.90;4.90;;;;;;;27.65;84.42;97969.31;5074065;28;20643;-58
2022/08/24 09:55:42;;;;;;;7.85;5.15;;;;;;;27.71;87.94;97968.44;5006018;28;20216;-58
2022/08/24 09:58:34;;;;;;;8.27;5.45;;;;;;;27.77;87.32;97956.94;5074419;28;20196;-58
2022/08/24 10:01:22;;;;;;;9.85;4.85;;;;;;;27.87;82.55;97957.19;5074005;28;20179;-57
2022/08/24 10:04:24;;;;;;;10.02;4.88;;;;;;;27.97;80.66;97962.78;5074015;28;20642;-58
2022/08/24 10:07:11;;;;;;;9.68;5.68;;;;;;;28.08;83.38;97955.88;5074590;28;20156;-58
2022/08/24 10:09:55;;;;;;;8.25;5.63;;;;;;;28.27;83.42;97963.59;5074494;28;20161;-58
2022/08/24 10:12:29;;;;;;;7.65;5.28;;;;;;;28.35;80.80;97975.75;5074114;28;20192;-58
2022/08/24 10:15:19;;;;;;;14.75;5.32;;;;;;;28.49;72.46;97964.72;5074011;28;20195;-58
2022/08/24 10:18:09;;;;;;;9.18;5.03;;;;;;;28.52;73.53;97968.78;5074072;28;20160;-58
2022/08/24 10:21:02;;;;;;;8.35;5.72;;;;;;;28.59;70.14;97970.31;5074338;28;20157;-57
2022/08/24 10:23:37;;;;;;;11.75;4.95;;;;;;;28.69;70.03;97970.53;5073637;28;20164;-58
2022/08/24 10:26:16;;;;;;;9.95;4.85;;;;;;;28.74;70.72;97973.31;5073970;28;20176;-58
2022/08/24 10:29:10;;;;;;;11.88;5.43;;;;;;;28.81;71.21;97963.34;5073881;28;20164;-58
2022/08/24 10:32:02;;;;;;;8.10;4.30;;;;;;;28.78;69.49;97961.16;5073793;28;20565;-58
2022/08/24 10:35:09;;;;;;;10.05;4.63;;;;;;;28.71;68.70;97964.97;5073653;28;20234;-58
2022/08/24 10:39:39;;;;;;;6.20;4.03;;;;;;;28.62;68.64;97935.22;5034143;28;20180;-58
2022/08/24 10:41:01;;;;;;;10.77;4.72;;;;;;;28.96;69.21;97966.41;5073174;28;20183;-58
2022/08/24 10:43:36;;;;;;;10.20;4.82;;;;;;;29.22;67.51;97963.25;5073280;28;20693;-59
2022/08/24 10:46:20;;;;;;;11.98;4.60;;;;;;;29.45;62.92;97957.88;5073394;28;20179;-59
2022/08/24 10:48:51;;;;;;;15.65;4.75;;;;;;;29.55;62.80;97952.81;5073372;28;20183;-58
2022/08/24 10:51:38;;;;;;;12.15;5.03;;;;;;;29.67;62.24;97950.13;5073092;28;20179;-59
2022/08/24 10:54:05;;;;;;;12.85;4.43;;;;;;;29.83;61.02;97942.16;5073266;28;20253;-59
2022/08/24 10:56:40;;;;;;;11.43;4.95;;;;;;;29.69;59.56;97937.34;5072929;28;20277;-58
2022/08/24 10:59:48;;;;;;;10.80;4.28;;;;;;;29.58;60.35;97947.00;5073218;28;20191;-58
2022/08/24 11:02:36;;;;;;;8.68;4.97;;;;;;;29.34;66.21;97944.59;5061948;28;20191;-58
2022/08/24 11:05:12;;;;;;;13.73;4.53;;;;;;;29.17;66.60;97936.53;5072759;28;20562;-58
2022/08/24 11:07:59;;;;;;;9.40;4.38;;;;;;;29.15;64.86;97940.47;5073072;28;20155;-59
2022/08/24 11:10:29;;;;;;;11.48;4.72;;;;;;;28.98;69.46;97927.00;5072716;28;20161;-58
2022/08/24 11:12:55;;;;;;;10.15;4.40;;;;;;;28.86;67.50;97920.06;5071955;28;20179;-58
2022/08/24 11:15:24;;;;;;;19.13;4.40;;;;;;;28.79;68.94;97925.50;5072826;28;20263;-59
2022/08/24 11:17:55;;;;;;;18.90;4.88;;;;;;;28.81;71.65;97923.41;5072843;28;20551;-60
2022/08/24 11:20:29;;;;;;;12.88;4.63;;;;;;;28.82;71.32;97913.56;5072669;28;20219;-58
2022/08/24 11:23:15;;;;;;;12.70;4.32;;;;;;;28.99;68.87;97925.19;5072461;28;20264;-58
2022/08/24 11:26:12;;;;;;;14.02;4.70;;;;;;;29.04;68.05;97918.09;5072681;28;20613;-58
2022/08/24 11:28:49;;;;;;;12.57;4.30;;;;;;;29.47;67.75;97929.16;5069730;28;20189;-58
2022/08/24 11:31:38;;;;;;;11.20;4.50;;;;;;;29.76;69.14;97919.34;5072902;28;20168;-58
2022/08/24 11:34:09;;;;;;;10.18;4.53;;;;;;;29.95;68.02;97918.09;5072650;28;20203;-59
2022/08/24 11:36:37;;;;;;;14.52;5.07;;;;;;;30.17;63.46;97919.06;5073007;28;20199;-59